sensor_id;sensor_type;location;lat;lon;timestamp;pressure;altitude;pressure_sealevel;temperature;humidity
17764;BME280;22245;52.832;13.816;2023-04-08T00:01:39;101957.13;;;6.38;86.23
17764;BME280;22245;52.832;13.816;2023-04-08T00:05:01;101961.50;;;6.39;86.11
17764;BME280;22245;52.832;13.816;2023-04-08T00:08:23;101961.44;;;6.41;85.96
17764;BME280;22245;52.832;13.816;2023-04-08T00:11:46;101960.50;;;6.42;85.94
17764;BME280;22245;52.832;13.816;2023-04-08T00:15:08;101953.34;;;6.44;85.84
17764;BME280;22245;52.832;13.816;2023-04-08T00:18:29;101961.28;;;6.44;85.79
17764;BME280;22245;52.832;13.816;2023-04-08T00:21:51;101958.50;;;6.47;85.71
17764;BME280;22245;52.832;13.816;2023-04-08T00:25:13;101966.38;;;6.48;85.63
17764;BME280;22245;52.832;13.816;2023-04-08T00:28:36;101967.00;;;6.54;85.27
17764;BME280;22245;52.832;13.816;2023-04-08T00:31:58;101963.41;;;6.55;85.29
17764;BME280;22245;52.832;13.816;2023-04-08T00:35:19;101965.97;;;6.56;85.21
17764;BME280;22245;52.832;13.816;2023-04-08T00:38:41;101969.56;;;6.55;85.41
17764;BME280;22245;52.832;13.816;2023-04-08T00:42:03;101961.56;;;6.57;85.08
17764;BME280;22245;52.832;13.816;2023-04-08T00:45:26;101969.50;;;6.57;85.02
17764;BME280;22245;52.832;13.816;2023-04-08T00:48:47;101979.16;;;6.58;85.20
17764;BME280;22245;52.832;13.816;2023-04-08T00:52:09;101974.00;;;6.55;85.26
17764;BME280;22245;52.832;13.816;2023-04-08T00:55:31;101979.31;;;6.55;85.45
17764;BME280;22245;52.832;13.816;2023-04-08T00:58:52;101983.72;;;6.54;85.25
17764;BME280;22245;52.832;13.816;2023-04-08T01:02:21;101975.78;;;6.54;85.29
17764;BME280;22245;52.832;13.816;2023-04-08T01:05:52;101984.59;;;6.55;85.15
17764;BME280;22245;52.832;13.816;2023-04-08T01:09:18;101985.38;;;6.57;85.25
17764;BME280;22245;52.832;13.816;2023-04-08T01:12:48;101982.72;;;6.57;84.96
17764;BME280;22245;52.832;13.816;2023-04-08T01:16:13;101980.00;;;6.58;85.03
17764;BME280;22245;52.832;13.816;2023-04-08T01:19:39;101983.97;;;6.49;84.85
17764;BME280;22245;52.832;13.816;2023-04-08T01:23:10;101985.03;;;6.45;85.34
17764;BME280;22245;52.832;13.816;2023-04-08T01:26:35;101987.81;;;6.42;85.51
17764;BME280;22245;52.832;13.816;2023-04-08T01:29:58;101979.88;;;6.42;85.69
17764;BME280;22245;52.832;13.816;2023-04-08T01:33:24;101985.31;;;6.39;85.56
17764;BME280;22245;52.832;13.816;2023-04-08T01:36:48;101987.97;;;6.39;85.59
17764;BME280;22245;52.832;13.816;2023-04-08T01:40:11;101980.81;;;6.41;85.48
17764;BME280;22245;52.832;13.816;2023-04-08T01:43:35;101982.50;;;6.42;85.41
17764;BME280;22245;52.832;13.816;2023-04-08T01:46:59;101980.81;;;6.41;85.44
17764;BME280;22245;52.832;13.816;2023-04-08T01:50:22;101986.03;;;6.43;85.45
17764;BME280;22245;52.832;13.816;2023-04-08T01:53:44;101988.69;;;6.43;85.09
17764;BME280;22245;52.832;13.816;2023-04-08T01:57:07;101989.66;;;6.40;85.25
17764;BME280;22245;52.832;13.816;2023-04-08T02:00:33;101992.41;;;6.39;85.18
17764;BME280;22245;52.832;13.816;2023-04-08T02:03:57;101989.97;;;6.34;85.55
17764;BME280;22245;52.832;13.816;2023-04-08T02:07:19;101998.78;;;6.34;85.83
17764;BME280;22245;52.832;13.816;2023-04-08T02:10:42;102009.28;;;6.36;85.82
17764;BME280;22245;52.832;13.816;2023-04-08T02:14:03;102003.06;;;6.37;85.74
17764;BME280;22245;52.832;13.816;2023-04-08T02:17:32;102010.06;;;6.38;85.78
17764;BME280;22245;52.832;13.816;2023-04-08T02:20:58;102011.63;;;6.42;85.42
17764;BME280;22245;52.832;13.816;2023-04-08T02:24:22;102004.63;;;6.41;85.84
17764;BME280;22245;52.832;13.816;2023-04-08T02:27:44;102008.03;;;6.43;85.71
17764;BME280;22245;52.832;13.816;2023-04-08T02:31:09;102006.34;;;6.42;85.62
17764;BME280;22245;52.832;13.816;2023-04-08T02:34:39;102014.22;;;6.44;85.60
17764;BME280;22245;52.832;13.816;2023-04-08T02:38:00;102010.78;;;6.42;85.57
17764;BME280;22245;52.832;13.816;2023-04-08T02:41:22;102014.94;;;6.47;85.43
17764;BME280;22245;52.832;13.816;2023-04-08T02:44:43;102022.63;;;6.52;85.06
17764;BME280;22245;52.832;13.816;2023-04-08T02:48:05;102028.81;;;6.53;85.04
17764;BME280;22245;52.832;13.816;2023-04-08T02:51:28;102034.88;;;6.55;84.78
17764;BME280;22245;52.832;13.816;2023-04-08T02:54:49;102024.34;;;6.53;84.79
17764;BME280;22245;52.832;13.816;2023-04-08T02:58:10;102028.81;;;6.53;84.84
17764;BME280;22245;52.832;13.816;2023-04-08T03:01:31;102029.66;;;6.53;85.07
17764;BME280;22245;52.832;13.816;2023-04-08T03:04:53;102039.41;;;6.53;85.14
17764;BME280;22245;52.832;13.816;2023-04-08T03:08:17;102028.03;;;6.50;85.21
17764;BME280;22245;52.832;13.816;2023-04-08T03:11:38;102038.59;;;6.50;85.55
17764;BME280;22245;52.832;13.816;2023-04-08T03:14:59;102044.84;;;6.49;85.19
17764;BME280;22245;52.832;13.816;2023-04-08T03:18:23;102050.97;;;6.50;85.15
17764;BME280;22245;52.832;13.816;2023-04-08T03:21:44;102046.59;;;6.49;85.35
17764;BME280;22245;52.832;13.816;2023-04-08T03:25:09;102050.91;;;6.51;85.18
17764;BME280;22245;52.832;13.816;2023-04-08T03:28:31;102042.97;;;6.51;84.82
17764;BME280;22245;52.832;13.816;2023-04-08T03:31:52;102043.81;;;6.52;84.87
17764;BME280;22245;52.832;13.816;2023-04-08T03:35:15;102048.19;;;6.53;84.64
17764;BME280;22245;52.832;13.816;2023-04-08T03:38:36;102042.97;;;6.51;85.04
17764;BME280;22245;52.832;13.816;2023-04-08T03:41:59;102050.91;;;6.51;84.76
17764;BME280;22245;52.832;13.816;2023-04-08T03:45:22;102072.09;;;6.51;84.91
17764;BME280;22245;52.832;13.816;2023-04-08T03:48:43;102064.16;;;6.51;84.94
17764;BME280;22245;52.832;13.816;2023-04-08T03:52:05;102076.44;;;6.53;84.82
17764;BME280;22245;52.832;13.816;2023-04-08T03:55:26;102065.06;;;6.50;84.90
17764;BME280;22245;52.832;13.816;2023-04-08T03:58:49;102067.72;;;6.50;84.88
17764;BME280;22245;52.832;13.816;2023-04-08T04:02:11;102066.16;;;6.46;84.81
17764;BME280;22245;52.832;13.816;2023-04-08T04:05:33;102066.06;;;6.48;84.88
17764;BME280;22245;52.832;13.816;2023-04-08T04:08:54;102081.31;;;6.43;85.09
17764;BME280;22245;52.832;13.816;2023-04-08T04:12:16;102080.56;;;6.39;85.50
17764;BME280;22245;52.832;13.816;2023-04-08T04:15:39;102077.78;;;6.42;85.43
17764;BME280;22245;52.832;13.816;2023-04-08T04:19:00;102080.31;;;6.45;85.00
17764;BME280;22245;52.832;13.816;2023-04-08T04:22:22;102082.81;;;6.48;85.14
17764;BME280;22245;52.832;13.816;2023-04-08T04:25:43;102088.97;;;6.49;84.97
17764;BME280;22245;52.832;13.816;2023-04-08T04:29:05;102093.41;;;6.48;85.13
17764;BME280;22245;52.832;13.816;2023-04-08T04:32:27;102089.84;;;6.49;84.92
17764;BME280;22245;52.832;13.816;2023-04-08T04:35:49;102097.91;;;6.46;85.33
17764;BME280;22245;52.832;13.816;2023-04-08T04:39:11;102104.19;;;6.44;85.40
17764;BME280;22245;52.832;13.816;2023-04-08T04:42:32;102100.66;;;6.43;85.35
17764;BME280;22245;52.832;13.816;2023-04-08T04:45:54;102111.16;;;6.46;85.21
17764;BME280;22245;52.832;13.816;2023-04-08T04:49:17;102106.50;;;6.51;85.41
17764;BME280;22245;52.832;13.816;2023-04-08T04:52:38;102110.06;;;6.50;85.17
17764;BME280;22245;52.832;13.816;2023-04-08T04:56:01;102103.91;;;6.50;85.34
17764;BME280;22245;52.832;13.816;2023-04-08T04:59:23;102109.13;;;6.51;85.60
17764;BME280;22245;52.832;13.816;2023-04-08T05:02:45;102113.50;;;6.53;85.38
17764;BME280;22245;52.832;13.816;2023-04-08T05:06:08;102126.59;;;6.56;85.14
17764;BME280;22245;52.832;13.816;2023-04-08T05:09:31;102130.09;;;6.56;85.14
17764;BME280;22245;52.832;13.816;2023-04-08T05:12:52;102134.53;;;6.56;85.28
17764;BME280;22245;52.832;13.816;2023-04-08T05:16:13;102133.75;;;6.54;85.65
17764;BME280;22245;52.832;13.816;2023-04-08T05:19:35;102138.97;;;6.55;85.44
17764;BME280;22245;52.832;13.816;2023-04-08T05:22:58;102138.91;;;6.57;85.57
17764;BME280;22245;52.832;13.816;2023-04-08T05:26:20;102139.75;;;6.57;85.66
17764;BME280;22245;52.832;13.816;2023-04-08T05:29:42;102142.41;;;6.57;85.54
17764;BME280;22245;52.832;13.816;2023-04-08T05:33:03;102142.34;;;6.59;85.73
17764;BME280;22245;52.832;13.816;2023-04-08T05:36:24;102139.88;;;6.54;85.80
17764;BME280;22245;52.832;13.816;2023-04-08T05:39:48;102144.41;;;6.52;85.64
17764;BME280;22245;52.832;13.816;2023-04-08T05:43:09;102158.56;;;6.51;85.89
17764;BME280;22245;52.832;13.816;2023-04-08T05:46:31;102159.44;;;6.51;85.95
17764;BME280;22245;52.832;13.816;2023-04-08T05:49:53;102159.56;;;6.48;85.91
17764;BME280;22245;52.832;13.816;2023-04-08T05:53:14;102170.16;;;6.48;86.10
17764;BME280;22245;52.832;13.816;2023-04-08T05:56:37;102172.81;;;6.48;86.17
17764;BME280;22245;52.832;13.816;2023-04-08T05:59:59;102183.31;;;6.50;85.99
17764;BME280;22245;52.832;13.816;2023-04-08T06:03:25;102180.66;;;6.50;86.24
17764;BME280;22245;52.832;13.816;2023-04-08T06:06:47;102192.91;;;6.53;86.23
17764;BME280;22245;52.832;13.816;2023-04-08T06:10:09;102182.25;;;6.54;86.13
17764;BME280;22245;52.832;13.816;2023-04-08T06:13:32;102189.19;;;6.57;86.47
17764;BME280;22245;52.832;13.816;2023-04-08T06:16:53;102183.75;;;6.60;86.30
17764;BME280;22245;52.832;13.816;2023-04-08T06:20:16;102188.03;;;6.62;85.91
17764;BME280;22245;52.832;13.816;2023-04-08T06:23:38;102189.69;;;6.65;85.98
17764;BME280;22245;52.832;13.816;2023-04-08T06:26:59;102190.50;;;6.67;85.95
17764;BME280;22245;52.832;13.816;2023-04-08T06:30:22;102195.72;;;6.69;85.71
17764;BME280;22245;52.832;13.816;2023-04-08T06:33:44;102202.78;;;6.68;85.97
17764;BME280;22245;52.832;13.816;2023-04-08T06:37:06;102196.72;;;6.66;86.10
17764;BME280;22245;52.832;13.816;2023-04-08T06:40:28;102206.38;;;6.67;86.67
17764;BME280;22245;52.832;13.816;2023-04-08T06:43:49;102209.03;;;6.67;86.58
17764;BME280;22245;52.832;13.816;2023-04-08T06:47:12;102219.56;;;6.69;86.58
17764;BME280;22245;52.832;13.816;2023-04-08T06:50:35;102222.25;;;6.67;86.26
17764;BME280;22245;52.832;13.816;2023-04-08T06:53:57;102224.06;;;6.66;86.50
17764;BME280;22245;52.832;13.816;2023-04-08T06:57:19;102222.41;;;6.64;86.57
17764;BME280;22245;52.832;13.816;2023-04-08T07:00:40;102232.25;;;6.60;87.16
17764;BME280;22245;52.832;13.816;2023-04-08T07:04:04;102239.22;;;6.63;87.07
17764;BME280;22245;52.832;13.816;2023-04-08T07:07:25;102245.44;;;6.62;87.22
17764;BME280;22245;52.832;13.816;2023-04-08T07:10:47;102250.59;;;6.65;86.98
17764;BME280;22245;52.832;13.816;2023-04-08T07:14:09;102248.69;;;6.69;87.22
17764;BME280;22245;52.832;13.816;2023-04-08T07:17:30;102254.75;;;6.71;87.02
17764;BME280;22245;52.832;13.816;2023-04-08T07:20:54;102250.31;;;6.71;86.85
17764;BME280;22245;52.832;13.816;2023-04-08T07:24:16;102269.50;;;6.76;86.70
17764;BME280;22245;52.832;13.816;2023-04-08T07:27:38;102265.78;;;6.80;86.46
17764;BME280;22245;52.832;13.816;2023-04-08T07:31:09;102267.50;;;6.81;86.79
17764;BME280;22245;52.832;13.816;2023-04-08T07:34:30;102262.09;;;6.85;86.87
17764;BME280;22245;52.832;13.816;2023-04-08T07:37:54;102258.38;;;6.89;87.04
17764;BME280;22245;52.832;13.816;2023-04-08T07:41:16;102267.09;;;6.91;86.90
17764;BME280;22245;52.832;13.816;2023-04-08T07:44:37;102267.09;;;6.91;86.15
17764;BME280;22245;52.832;13.816;2023-04-08T07:47:59;102273.25;;;6.91;86.70
17764;BME280;22245;52.832;13.816;2023-04-08T07:51:21;102273.09;;;6.94;86.69
17764;BME280;22245;52.832;13.816;2023-04-08T07:54:44;102280.06;;;6.97;86.03
17764;BME280;22245;52.832;13.816;2023-04-08T07:58:05;102289.53;;;7.03;86.36
17764;BME280;22245;52.832;13.816;2023-04-08T08:01:27;102296.66;;;7.01;86.20
17764;BME280;22245;52.832;13.816;2023-04-08T08:04:50;102293.97;;;7.02;86.06
17764;BME280;22245;52.832;13.816;2023-04-08T08:08:12;102296.63;;;7.02;86.10
17764;BME280;22245;52.832;13.816;2023-04-08T08:11:35;102302.84;;;7.01;85.65
17764;BME280;22245;52.832;13.816;2023-04-08T08:14:56;102291.47;;;6.99;86.32
17764;BME280;22245;52.832;13.816;2023-04-08T08:18:18;102292.03;;;7.06;86.26
17764;BME280;22245;52.832;13.816;2023-04-08T08:21:39;102297.06;;;7.12;85.85
17764;BME280;22245;52.832;13.816;2023-04-08T08:25:01;102306.72;;;7.13;86.06
17764;BME280;22245;52.832;13.816;2023-04-08T08:28:24;102301.19;;;7.18;85.97
17764;BME280;22245;52.832;13.816;2023-04-08T08:31:46;102297.50;;;7.22;86.29
17764;BME280;22245;52.832;13.816;2023-04-08T08:35:08;102310.75;;;7.22;85.70
17764;BME280;22245;52.832;13.816;2023-04-08T08:38:30;102314.84;;;7.29;85.64
17764;BME280;22245;52.832;13.816;2023-04-08T08:41:51;102312.84;;;7.34;85.18
17764;BME280;22245;52.832;13.816;2023-04-08T08:45:15;102316.13;;;7.39;85.30
17764;BME280;22245;52.832;13.816;2023-04-08T08:48:36;102315.97;;;7.43;85.05
17764;BME280;22245;52.832;13.816;2023-04-08T08:52:00;102319.28;;;7.48;85.13
17764;BME280;22245;52.832;13.816;2023-04-08T08:55:21;102308.38;;;7.54;85.06
17764;BME280;22245;52.832;13.816;2023-04-08T08:58:45;102318.78;;;7.59;84.51
17764;BME280;22245;52.832;13.816;2023-04-08T09:02:22;102328.53;;;7.58;84.48
17764;BME280;22245;52.832;13.816;2023-04-08T09:05:51;102327.50;;;7.61;84.85
17764;BME280;22245;52.832;13.816;2023-04-08T09:09:13;102329.03;;;7.66;84.89
17764;BME280;22245;52.832;13.816;2023-04-08T09:12:52;102329.81;;;7.68;84.88
17764;BME280;22245;52.832;13.816;2023-04-08T09:16:15;102335.75;;;7.74;84.58
17764;BME280;22245;52.832;13.816;2023-04-08T09:19:39;102334.72;;;7.76;84.33
17764;BME280;22245;52.832;13.816;2023-04-08T09:23:37;102329.34;;;7.78;84.05
17764;BME280;22245;52.832;13.816;2023-04-08T09:27:40;102344.03;;;7.85;84.36
17764;BME280;22245;52.832;13.816;2023-04-08T09:31:17;102347.31;;;7.90;83.92
17764;BME280;22245;52.832;13.816;2023-04-08T09:34:40;102354.19;;;7.94;83.19
17764;BME280;22245;52.832;13.816;2023-04-08T09:38:02;102346.91;;;8.00;83.49
17764;BME280;22245;52.832;13.816;2023-04-08T09:41:27;102351.91;;;8.06;82.92
17764;BME280;22245;52.832;13.816;2023-04-08T09:44:49;102350.81;;;8.10;82.69
17764;BME280;22245;52.832;13.816;2023-04-08T09:48:13;102352.53;;;8.11;82.49
17764;BME280;22245;52.832;13.816;2023-04-08T09:51:44;102355.91;;;8.15;82.92
17764;BME280;22245;52.832;13.816;2023-04-08T09:55:11;102355.59;;;8.21;83.07
17764;BME280;22245;52.832;13.816;2023-04-08T09:58:38;102359.72;;;8.26;83.21
17764;BME280;22245;52.832;13.816;2023-04-08T10:02:05;102360.28;;;8.33;82.34
17764;BME280;22245;52.832;13.816;2023-04-08T10:05:29;102361.72;;;8.40;81.50
17764;BME280;22245;52.832;13.816;2023-04-08T10:08:52;102352.66;;;8.45;81.72
17764;BME280;22245;52.832;13.816;2023-04-08T10:12:14;102353.25;;;8.51;81.57
17764;BME280;22245;52.832;13.816;2023-04-08T10:15:36;102357.22;;;8.60;81.29
17764;BME280;22245;52.832;13.816;2023-04-08T10:19:00;102347.06;;;8.68;81.14
17764;BME280;22245;52.832;13.816;2023-04-08T10:22:47;102362.53;;;8.78;80.25
17764;BME280;22245;52.832;13.816;2023-04-08T10:26:29;102344.63;;;8.81;79.83
17764;BME280;22245;52.832;13.816;2023-04-08T10:29:52;102353.06;;;8.90;79.99
17764;BME280;22245;52.832;13.816;2023-04-08T10:33:15;102358.81;;;8.98;79.85
17764;BME280;22245;52.832;13.816;2023-04-08T10:36:37;102354.13;;;9.03;78.46
17764;BME280;22245;52.832;13.816;2023-04-08T10:39:59;102363.03;;;9.02;78.34
17764;BME280;22245;52.832;13.816;2023-04-08T10:43:22;102360.31;;;9.04;78.32
17764;BME280;22245;52.832;13.816;2023-04-08T10:46:43;102353.13;;;9.06;77.79
17764;BME280;22245;52.832;13.816;2023-04-08T10:50:11;102353.97;;;9.06;78.16
17764;BME280;22245;52.832;13.816;2023-04-08T10:53:35;102348.50;;;9.09;78.02
17764;BME280;22245;52.832;13.816;2023-04-08T10:56:56;102353.22;;;9.20;77.85
17764;BME280;22245;52.832;13.816;2023-04-08T11:00:33;102346.56;;;9.29;77.11
17764;BME280;22245;52.832;13.816;2023-04-08T11:03:54;102342.72;;;9.35;76.67
17764;BME280;22245;52.832;13.816;2023-04-08T11:07:19;102344.94;;;9.43;76.21
17764;BME280;22245;52.832;13.816;2023-04-08T11:10:41;102342.56;;;9.54;74.38
17764;BME280;22245;52.832;13.816;2023-04-08T11:14:04;102342.06;;;9.63;74.62
17764;BME280;22245;52.832;13.816;2023-04-08T11:17:28;102339.81;;;9.72;72.63
17764;BME280;22245;52.832;13.816;2023-04-08T11:20:51;102342.81;;;9.81;72.37
17764;BME280;22245;52.832;13.816;2023-04-08T11:24:13;102334.25;;;9.92;71.70
17764;BME280;22245;52.832;13.816;2023-04-08T11:27:36;102347.09;;;10.00;72.22
17764;BME280;22245;52.832;13.816;2023-04-08T11:30:58;102338.78;;;10.06;72.52
17764;BME280;22245;52.832;13.816;2023-04-08T11:34:23;102339.25;;;10.13;72.21
17764;BME280;22245;52.832;13.816;2023-04-08T11:37:45;102338.06;;;10.19;70.89
17764;BME280;22245;52.832;13.816;2023-04-08T11:41:09;102340.47;;;10.23;70.44
17764;BME280;22245;52.832;13.816;2023-04-08T11:44:31;102342.75;;;10.30;70.96
17764;BME280;22245;52.832;13.816;2023-04-08T11:47:53;102352.88;;;10.39;70.89
17764;BME280;22245;52.832;13.816;2023-04-08T11:51:16;102342.06;;;10.42;70.47
17764;BME280;22245;52.832;13.816;2023-04-08T11:54:40;102337.13;;;10.50;70.22
17764;BME280;22245;52.832;13.816;2023-04-08T11:58:03;102338.47;;;10.57;70.24
17764;BME280;22245;52.832;13.816;2023-04-08T12:01:26;102340.78;;;10.64;68.95
17764;BME280;22245;52.832;13.816;2023-04-08T12:04:48;102346.88;;;10.66;68.58
17764;BME280;22245;52.832;13.816;2023-04-08T12:08:11;102337.94;;;10.67;68.27
17764;BME280;22245;52.832;13.816;2023-04-08T12:11:33;102337.75;;;10.70;68.59
17764;BME280;22245;52.832;13.816;2023-04-08T12:14:55;102331.38;;;10.73;67.60
17764;BME280;22245;52.832;13.816;2023-04-08T12:18:16;102328.44;;;10.77;68.76
17764;BME280;22245;52.832;13.816;2023-04-08T12:21:38;102319.97;;;10.85;68.05
17764;BME280;22245;52.832;13.816;2023-04-08T12:25:01;102326.44;;;10.95;67.76
17764;BME280;22245;52.832;13.816;2023-04-08T12:28:23;102325.88;;;11.05;65.54
17764;BME280;22245;52.832;13.816;2023-04-08T12:31:44;102321.88;;;11.12;63.56
17764;BME280;22245;52.832;13.816;2023-04-08T12:35:07;102326.06;;;11.16;63.29
17764;BME280;22245;52.832;13.816;2023-04-08T12:38:29;102318.75;;;11.20;62.75
17764;BME280;22245;52.832;13.816;2023-04-08T12:41:52;102326.47;;;11.24;63.87
17764;BME280;22245;52.832;13.816;2023-04-08T12:45:13;102320.53;;;11.34;65.50
17764;BME280;22245;52.832;13.816;2023-04-08T12:48:35;102321.00;;;11.40;64.05
17764;BME280;22245;52.832;13.816;2023-04-08T12:51:57;102324.03;;;11.49;63.44
17764;BME280;22245;52.832;13.816;2023-04-08T12:55:19;102306.59;;;11.57;63.69
17764;BME280;22245;52.832;13.816;2023-04-08T12:58:45;102307.22;;;11.61;63.13
17764;BME280;22245;52.832;13.816;2023-04-08T13:02:06;102301.69;;;11.64;62.25
17764;BME280;22245;52.832;13.816;2023-04-08T13:05:28;102299.50;;;11.71;62.03
17764;BME280;22245;52.832;13.816;2023-04-08T13:09:03;102297.09;;;11.81;62.70
17764;BME280;22245;52.832;13.816;2023-04-08T13:12:24;102295.94;;;11.85;61.12
17764;BME280;22245;52.832;13.816;2023-04-08T13:15:47;102291.59;;;11.97;61.10
17764;BME280;22245;52.832;13.816;2023-04-08T13:19:10;102292.59;;;12.09;61.58
17764;BME280;22245;52.832;13.816;2023-04-08T13:22:31;102298.09;;;12.20;59.63
17764;BME280;22245;52.832;13.816;2023-04-08T13:25:53;102297.00;;;12.23;59.78
17764;BME280;22245;52.832;13.816;2023-04-08T13:29:15;102286.97;;;12.26;59.61
17764;BME280;22245;52.832;13.816;2023-04-08T13:32:38;102288.78;;;12.26;60.12
17764;BME280;22245;52.832;13.816;2023-04-08T13:36:00;102293.63;;;12.34;59.66
17764;BME280;22245;52.832;13.816;2023-04-08T13:39:21;102295.53;;;12.32;59.24
17764;BME280;22245;52.832;13.816;2023-04-08T13:42:43;102290.53;;;12.40;59.62
17764;BME280;22245;52.832;13.816;2023-04-08T13:46:04;102289.88;;;12.49;58.19
17764;BME280;22245;52.832;13.816;2023-04-08T13:49:28;102290.09;;;12.59;58.82
17764;BME280;22245;52.832;13.816;2023-04-08T13:52:50;102285.28;;;12.64;58.15
17764;BME280;22245;52.832;13.816;2023-04-08T13:56:12;102285.00;;;12.69;58.34
17764;BME280;22245;52.832;13.816;2023-04-08T13:59:33;102296.97;;;12.76;58.16
17764;BME280;22245;52.832;13.816;2023-04-08T14:02:55;102292.78;;;12.72;58.85
17764;BME280;22245;52.832;13.816;2023-04-08T14:06:18;102290.13;;;12.72;59.07
17764;BME280;22245;52.832;13.816;2023-04-08T14:09:39;102285.53;;;12.74;58.32
17764;BME280;22245;52.832;13.816;2023-04-08T14:13:01;102286.47;;;12.73;58.78
17764;BME280;22245;52.832;13.816;2023-04-08T14:16:22;102283.59;;;12.76;59.14
17764;BME280;22245;52.832;13.816;2023-04-08T14:19:44;102283.38;;;12.79;58.78
17764;BME280;22245;52.832;13.816;2023-04-08T14:23:07;102279.22;;;12.88;58.24
17764;BME280;22245;52.832;13.816;2023-04-08T14:26:28;102278.31;;;13.00;57.56
17764;BME280;22245;52.832;13.816;2023-04-08T14:29:52;102286.78;;;13.07;58.42
17764;BME280;22245;52.832;13.816;2023-04-08T14:33:13;102289.88;;;13.14;58.25
17764;BME280;22245;52.832;13.816;2023-04-08T14:36:35;102291.69;;;13.13;57.42
17764;BME280;22245;52.832;13.816;2023-04-08T14:39:58;102286.69;;;13.09;57.44
17764;BME280;22245;52.832;13.816;2023-04-08T14:43:20;102293.75;;;13.10;57.19
17764;BME280;22245;52.832;13.816;2023-04-08T14:46:41;102284.97;;;13.08;58.13
17764;BME280;22245;52.832;13.816;2023-04-08T14:50:04;102277.56;;;13.11;57.37
17764;BME280;22245;52.832;13.816;2023-04-08T14:53:25;102278.44;;;13.12;57.74
17764;BME280;22245;52.832;13.816;2023-04-08T14:56:49;102277.34;;;13.14;58.11
17764;BME280;22245;52.832;13.816;2023-04-08T15:00:11;102287.72;;;13.19;58.20
17764;BME280;22245;52.832;13.816;2023-04-08T15:03:33;102280.66;;;13.18;58.81
17764;BME280;22245;52.832;13.816;2023-04-08T15:06:55;102285.16;;;13.17;58.92
17764;BME280;22245;52.832;13.816;2023-04-08T15:10:17;102281.72;;;13.15;59.03
17764;BME280;22245;52.832;13.816;2023-04-08T15:13:40;102283.66;;;13.13;58.90
17764;BME280;22245;52.832;13.816;2023-04-08T15:17:02;102276.50;;;13.14;58.63
17764;BME280;22245;52.832;13.816;2023-04-08T15:20:24;102281.19;;;13.23;58.75
17764;BME280;22245;52.832;13.816;2023-04-08T15:23:45;102281.38;;;13.33;57.67
17764;BME280;22245;52.832;13.816;2023-04-08T15:27:06;102288.63;;;13.44;58.13
17764;BME280;22245;52.832;13.816;2023-04-08T15:30:31;102278.84;;;13.56;57.21
17764;BME280;22245;52.832;13.816;2023-04-08T15:33:54;102286.97;;;13.67;57.08
17764;BME280;22245;52.832;13.816;2023-04-08T15:37:17;102287.25;;;13.75;57.14
17764;BME280;22245;52.832;13.816;2023-04-08T15:40:41;102284.38;;;13.90;56.30
17764;BME280;22245;52.832;13.816;2023-04-08T15:44:02;102288.06;;;14.00;54.84
17764;BME280;22245;52.832;13.816;2023-04-08T15:47:24;102291.22;;;13.94;55.75
17764;BME280;22245;52.832;13.816;2023-04-08T15:50:46;102290.22;;;13.84;55.17
17764;BME280;22245;52.832;13.816;2023-04-08T15:54:09;102290.91;;;13.74;56.48
17764;BME280;22245;52.832;13.816;2023-04-08T15:57:31;102296.03;;;13.78;56.51
17764;BME280;22245;52.832;13.816;2023-04-08T16:00:55;102301.03;;;13.82;56.50
17764;BME280;22245;52.832;13.816;2023-04-08T16:04:18;102300.69;;;13.87;57.06
17764;BME280;22245;52.832;13.816;2023-04-08T16:07:40;102299.44;;;13.80;56.51
17764;BME280;22245;52.832;13.816;2023-04-08T16:11:03;102299.44;;;13.80;57.44
17764;BME280;22245;52.832;13.816;2023-04-08T16:14:28;102289.97;;;13.87;57.15
17764;BME280;22245;52.832;13.816;2023-04-08T16:17:50;102294.88;;;13.93;57.31
17764;BME280;22245;52.832;13.816;2023-04-08T16:21:13;102301.16;;;13.81;57.67
17764;BME280;22245;52.832;13.816;2023-04-08T16:24:36;102296.88;;;13.78;58.11
17764;BME280;22245;52.832;13.816;2023-04-08T16:27:57;102290.94;;;13.86;57.79
17764;BME280;22245;52.832;13.816;2023-04-08T16:31:19;102302.16;;;13.91;57.95
17764;BME280;22245;52.832;13.816;2023-04-08T16:34:41;102295.75;;;13.94;57.49
17764;BME280;22245;52.832;13.816;2023-04-08T16:38:04;102305.59;;;13.93;57.86
17764;BME280;22245;52.832;13.816;2023-04-08T16:41:25;102316.53;;;13.90;57.84
17764;BME280;22245;52.832;13.816;2023-04-08T16:44:47;102316.66;;;13.88;58.04
17764;BME280;22245;52.832;13.816;2023-04-08T16:48:08;102320.19;;;13.89;58.04
17764;BME280;22245;52.832;13.816;2023-04-08T16:51:31;102317.63;;;13.87;58.44
17764;BME280;22245;52.832;13.816;2023-04-08T16:54:54;102328.38;;;13.74;58.66
17764;BME280;22245;52.832;13.816;2023-04-08T16:58:17;102327.38;;;13.64;59.28
17764;BME280;22245;52.832;13.816;2023-04-08T17:01:39;102333.88;;;13.60;60.20
17764;BME280;22245;52.832;13.816;2023-04-08T17:05:01;102342.34;;;13.54;60.11
17764;BME280;22245;52.832;13.816;2023-04-08T17:08:22;102346.56;;;13.32;60.81
17764;BME280;22245;52.832;13.816;2023-04-08T17:11:46;102346.28;;;13.11;61.62
17764;BME280;22245;52.832;13.816;2023-04-08T17:15:08;102353.66;;;12.94;62.26
17764;BME280;22245;52.832;13.816;2023-04-08T17:18:30;102357.19;;;12.82;62.47
17764;BME280;22245;52.832;13.816;2023-04-08T17:21:52;102365.94;;;12.71;62.73
17764;BME280;22245;52.832;13.816;2023-04-08T17:25:14;102368.69;;;12.56;63.58
17764;BME280;22245;52.832;13.816;2023-04-08T17:28:37;102373.34;;;12.40;64.16
17764;BME280;22245;52.832;13.816;2023-04-08T17:31:59;102379.88;;;12.36;64.38
17764;BME280;22245;52.832;13.816;2023-04-08T17:35:20;102378.84;;;12.24;64.43